createdAt,value
2023-11-01T00:01:59.901Z,7.16
2023-11-01T00:04:31.458Z,7.22
2023-11-01T00:07:03.249Z,7.18
2023-11-01T00:09:34.741Z,7.20
2023-11-01T00:12:06.303Z,7.17
2023-11-01T00:14:38.152Z,7.27
2023-11-01T00:17:09.711Z,7.24
2023-11-01T00:19:41.625Z,7.22
2023-11-01T00:22:13.118Z,7.27
2023-11-01T00:24:44.969Z,7.30
2023-11-01T00:27:16.458Z,7.34
2023-11-01T00:29:48.230Z,7.30
2023-11-01T00:32:19.701Z,7.32
2023-11-01T00:34:51.557Z,7.32
2023-11-01T00:37:23.107Z,7.31
2023-11-01T00:39:54.626Z,7.31
2023-11-01T00:42:26.111Z,7.36
2023-11-01T00:44:57.918Z,7.39
2023-11-01T00:47:29.725Z,7.34
2023-11-01T00:50:01.579Z,7.36
2023-11-01T00:52:33.243Z,7.44
2023-11-01T00:55:04.744Z,7.43
2023-11-01T00:57:36.643Z,7.31
2023-11-01T01:00:08.132Z,7.22
2023-11-01T01:02:39.883Z,7.24
2023-11-01T01:05:11.445Z,7.26
2023-11-01T01:07:43.366Z,7.27
2023-11-01T01:10:14.845Z,7.26
2023-11-01T01:12:46.635Z,7.27
2023-11-01T01:15:18.450Z,7.32
2023-11-01T01:17:50.629Z,7.34
2023-11-01T01:20:22.509Z,7.30
2023-11-01T01:22:54.599Z,7.20
2023-11-01T01:25:26.481Z,7.22
2023-11-01T01:27:57.967Z,7.29
2023-11-01T01:30:29.889Z,7.23
2023-11-01T01:33:01.382Z,7.22
2023-11-01T01:35:33.210Z,7.17
2023-11-01T01:38:04.745Z,7.11
2023-11-01T01:40:36.581Z,7.06
2023-11-01T01:43:08.138Z,6.98
2023-11-01T01:45:40.029Z,6.91
2023-11-01T01:48:11.911Z,6.90
2023-11-01T01:50:43.443Z,6.79
2023-11-01T01:53:15.297Z,6.88
2023-11-01T01:55:46.819Z,6.91
2023-11-01T01:58:18.303Z,6.80
2023-11-01T02:00:49.797Z,6.62
2023-11-01T02:03:21.386Z,6.55
2023-11-01T02:05:52.930Z,6.43
2023-11-01T02:08:24.777Z,6.44
2023-11-01T02:10:56.281Z,6.47
2023-11-01T02:13:27.958Z,6.53
2023-11-01T02:15:59.761Z,6.50
2023-11-01T02:18:31.562Z,6.58
2023-11-01T02:21:03.410Z,6.64
2023-11-01T02:23:34.952Z,6.70
2023-11-01T02:26:06.485Z,6.76
2023-11-01T02:28:37.986Z,6.69
2023-11-01T02:31:10.011Z,6.77
2023-11-01T02:33:41.498Z,6.76
2023-11-01T02:36:13.317Z,6.76
2023-11-01T02:38:44.831Z,6.81
2023-11-01T02:41:16.740Z,6.88
2023-11-01T02:43:48.517Z,6.89
2023-11-01T02:46:20.165Z,6.92
2023-11-01T02:48:51.972Z,6.93
2023-11-01T02:51:23.472Z,6.82
2023-11-01T02:53:58.817Z,6.76
2023-11-01T02:56:30.326Z,6.70
2023-11-01T02:59:02.325Z,6.80
2023-11-01T03:01:33.861Z,6.83
2023-11-01T03:04:05.779Z,6.81
2023-11-01T03:06:37.286Z,6.87
2023-11-01T03:09:09.081Z,6.97
2023-11-01T03:11:40.972Z,7.01
2023-11-01T03:14:12.681Z,7.08
2023-11-01T03:16:44.217Z,7.03
2023-11-01T03:19:15.711Z,6.98
2023-11-01T03:21:47.359Z,6.93
2023-11-01T03:24:18.839Z,6.97
2023-11-01T03:26:50.624Z,6.96
2023-11-01T03:29:22.121Z,7.03
2023-11-01T03:31:54.173Z,6.96
2023-11-01T03:34:25.673Z,7.00
2023-11-01T03:36:57.365Z,7.00
2023-11-01T03:39:28.835Z,6.96
2023-11-01T03:42:00.781Z,6.99
2023-11-01T03:44:32.636Z,7.03
2023-11-01T03:47:04.484Z,7.09
2023-11-01T03:49:35.964Z,7.03
2023-11-01T03:52:07.456Z,7.08
2023-11-01T03:54:39.297Z,7.06
2023-11-01T03:57:10.809Z,6.99
2023-11-01T03:59:42.303Z,6.95
2023-11-01T04:02:13.858Z,6.94
2023-11-01T04:04:45.367Z,7.00
2023-11-01T04:07:16.875Z,7.01
2023-11-01T04:09:48.663Z,6.98
2023-11-01T04:12:20.135Z,7.07
2023-11-01T04:14:51.651Z,7.12
2023-11-01T04:17:23.474Z,7.16
2023-11-01T04:19:54.968Z,7.18
2023-11-01T04:22:26.776Z,7.20
2023-11-01T04:24:58.265Z,7.16
2023-11-01T04:27:29.859Z,7.28
2023-11-01T04:30:01.372Z,7.23
2023-11-01T04:32:33.264Z,7.22
2023-11-01T04:35:04.805Z,7.19
2023-11-01T04:37:36.626Z,7.26
2023-11-01T04:40:08.107Z,7.28
2023-11-01T04:42:40.002Z,7.36
2023-11-01T04:45:11.893Z,7.32
2023-11-01T04:47:43.526Z,7.32
2023-11-01T04:50:15.917Z,7.22
2023-11-01T04:52:47.428Z,7.27
2023-11-01T04:55:19.331Z,7.24
2023-11-01T04:57:50.805Z,7.20
2023-11-01T05:00:22.687Z,7.17
2023-11-01T05:02:54.213Z,7.12
2023-11-01T05:05:26.269Z,7.09
2023-11-01T05:07:58.298Z,7.15
2023-11-01T05:10:30.290Z,7.23
2023-11-01T05:13:01.772Z,7.17
2023-11-01T05:15:33.468Z,7.13
2023-11-01T05:18:05.158Z,7.16
2023-11-01T05:20:37.029Z,7.18
2023-11-01T05:23:08.503Z,7.17
2023-11-01T05:25:40.312Z,7.18
2023-11-01T05:28:11.896Z,7.12
2023-11-01T05:30:43.730Z,7.02
2023-11-01T05:33:15.426Z,7.10
2023-11-01T05:35:47.194Z,7.16
2023-11-01T05:38:18.747Z,7.19
2023-11-01T05:40:50.630Z,7.29
2023-11-01T05:43:22.110Z,7.28
2023-11-01T05:45:53.936Z,7.29
2023-11-01T05:48:25.471Z,7.29
2023-11-01T05:50:57.390Z,7.35
2023-11-01T05:53:28.917Z,7.36
2023-11-01T05:56:08.290Z,7.40
2023-11-01T05:58:41.788Z,7.40
2023-11-01T06:01:13.607Z,7.39
2023-11-01T06:03:45.200Z,7.44
2023-11-01T06:06:17.088Z,7.47
2023-11-01T06:08:48.617Z,7.45
2023-11-01T06:11:20.507Z,7.47
2023-11-01T06:13:52.050Z,7.49
2023-11-01T06:16:23.904Z,7.46
2023-11-01T06:18:55.406Z,7.44
2023-11-01T06:21:27.233Z,7.40
2023-11-01T06:23:58.714Z,7.41
2023-11-01T06:26:30.615Z,7.37
2023-11-01T06:29:02.109Z,7.42
2023-11-01T06:31:34.003Z,7.38
2023-11-01T06:34:05.680Z,7.50
2023-11-01T06:36:37.650Z,7.53
2023-11-01T06:39:09.120Z,7.57
2023-11-01T06:41:40.991Z,7.64
2023-11-01T06:44:12.495Z,7.60
2023-11-01T06:46:45.462Z,7.65
2023-11-01T06:49:16.995Z,7.73
2023-11-01T06:51:48.801Z,7.76
2023-11-01T06:54:20.283Z,7.81
2023-11-01T06:56:52.229Z,7.81
2023-11-01T06:59:23.827Z,7.85
2023-11-01T07:01:55.527Z,7.85
2023-11-01T07:04:27.060Z,7.89
2023-11-01T07:06:58.827Z,7.90
2023-11-01T07:09:30.317Z,7.86
2023-11-01T07:12:02.175Z,7.91
2023-11-01T07:14:33.693Z,7.98
2023-11-01T07:17:05.502Z,8.01
2023-11-01T07:19:37.004Z,8.07
2023-11-01T07:22:08.897Z,8.16
2023-11-01T07:24:40.405Z,8.24
2023-11-01T07:27:12.649Z,8.33
2023-11-01T07:29:44.204Z,8.18
2023-11-01T07:32:15.929Z,8.36
2023-11-01T07:34:47.447Z,8.43
2023-11-01T07:37:19.242Z,8.46
2023-11-01T07:39:50.731Z,8.38
2023-11-01T07:42:22.546Z,8.64
2023-11-01T07:44:54.071Z,8.94
2023-11-01T07:47:25.967Z,9.21
2023-11-01T07:49:57.508Z,9.29
2023-11-01T07:52:29.356Z,9.39
2023-11-01T07:55:00.837Z,9.25
2023-11-01T07:57:32.615Z,9.34
2023-11-01T08:00:04.114Z,9.29
2023-11-01T08:02:36.009Z,9.49
2023-11-01T08:05:07.612Z,9.60
2023-11-01T08:07:39.679Z,9.58
2023-11-01T08:10:11.182Z,9.70
2023-11-01T08:12:42.969Z,9.72
2023-11-01T08:15:14.478Z,9.85
2023-11-01T08:17:46.230Z,9.99
2023-11-01T08:20:17.739Z,10.00
2023-11-01T08:22:49.562Z,10.27
2023-11-01T08:25:21.070Z,10.42
2023-11-01T08:27:53.143Z,10.53
2023-11-01T08:30:24.630Z,10.61
2023-11-01T08:32:56.483Z,10.65
2023-11-01T08:35:28.015Z,10.96
2023-11-01T08:37:59.576Z,10.80
2023-11-01T08:40:31.100Z,10.91
2023-11-01T08:43:02.981Z,10.96
2023-11-01T08:45:34.475Z,11.23
2023-11-01T08:48:06.218Z,11.22
2023-11-01T08:50:37.763Z,11.43
2023-11-01T08:53:09.544Z,11.59
2023-11-01T08:55:41.047Z,11.92
2023-11-01T08:58:12.755Z,12.20
2023-11-01T09:00:48.165Z,12.43
2023-11-01T09:03:20.560Z,12.49
2023-11-01T09:05:52.156Z,12.80
2023-11-01T09:08:24.144Z,12.90
2023-11-01T09:10:55.688Z,13.10
2023-11-01T09:13:27.417Z,13.28
2023-11-01T09:15:58.929Z,13.16
2023-11-01T09:18:30.800Z,12.92
2023-11-01T09:21:02.432Z,13.10
2023-11-01T09:23:34.328Z,12.95
2023-11-01T09:26:05.844Z,12.76
2023-11-01T09:28:37.686Z,13.46
2023-11-01T09:31:09.178Z,13.22
2023-11-01T09:33:41.089Z,13.58
2023-11-01T09:36:12.709Z,13.88
2023-11-01T09:38:44.621Z,13.90
2023-11-01T09:41:16.139Z,14.01
2023-11-01T09:43:47.653Z,14.30
2023-11-01T09:46:19.223Z,14.30
2023-11-01T09:48:51.202Z,14.43
2023-11-01T09:51:22.686Z,14.17
2023-11-01T09:53:54.588Z,14.28
2023-11-01T09:56:26.133Z,14.73
2023-11-01T09:58:57.981Z,14.19
2023-11-01T10:01:29.509Z,14.41
2023-11-01T10:04:03.720Z,13.98
2023-11-01T10:06:36.064Z,14.41
2023-11-01T10:09:07.791Z,13.86
2023-11-01T10:11:39.319Z,13.80
2023-11-01T10:14:11.121Z,13.78
2023-11-01T10:16:42.657Z,14.02
2023-11-01T10:19:14.516Z,14.23
2023-11-01T10:21:46.033Z,14.48
2023-11-01T10:24:17.799Z,14.42
2023-11-01T10:26:49.316Z,14.22
2023-11-01T10:29:21.208Z,14.32
2023-11-01T10:31:52.688Z,14.99
2023-11-01T10:34:24.517Z,15.05
2023-11-01T10:36:56.021Z,15.10
2023-11-01T10:39:27.911Z,15.36
2023-11-01T10:41:59.417Z,15.63
2023-11-01T10:44:31.416Z,15.16
2023-11-01T10:47:02.939Z,14.58
2023-11-01T10:49:34.721Z,14.66
2023-11-01T10:52:06.203Z,14.19
2023-11-01T10:54:38.038Z,13.95
2023-11-01T10:57:09.618Z,14.29
2023-11-01T10:59:41.476Z,14.74
2023-11-01T11:02:12.979Z,14.65
2023-11-01T11:04:44.960Z,14.64
2023-11-01T11:07:23.845Z,14.77
2023-11-01T11:09:56.549Z,14.66
2023-11-01T11:12:28.036Z,14.88
2023-11-01T11:14:59.876Z,14.64
2023-11-01T11:17:31.396Z,14.68
2023-11-01T11:20:03.210Z,14.82
2023-11-01T11:22:34.709Z,14.89
2023-11-01T11:25:06.286Z,15.06
2023-11-01T11:27:37.791Z,15.34
2023-11-01T11:30:09.619Z,15.20
2023-11-01T11:32:41.179Z,15.24
2023-11-01T11:35:12.746Z,15.40
2023-11-01T11:37:44.258Z,15.64
2023-11-01T11:40:16.411Z,15.64
2023-11-01T11:42:47.896Z,15.95
2023-11-01T11:45:19.728Z,15.45
2023-11-01T11:47:51.341Z,14.98
2023-11-01T11:50:23.401Z,15.47
2023-11-01T11:52:54.900Z,15.41
2023-11-01T11:55:26.737Z,14.77
2023-11-01T11:57:58.216Z,14.96
2023-11-01T12:00:29.879Z,14.81
2023-11-01T12:03:01.437Z,14.51
2023-11-01T12:05:33.391Z,15.06
2023-11-01T12:08:05.097Z,15.17
2023-11-01T12:10:38.859Z,15.09
2023-11-01T12:13:10.800Z,14.97
2023-11-01T12:15:42.334Z,14.88
2023-11-01T12:18:14.384Z,14.91
2023-11-01T12:20:52.483Z,14.82
2023-11-01T12:23:24.398Z,14.67
2023-11-01T12:25:55.917Z,14.68
2023-11-01T12:28:27.771Z,14.83
2023-11-01T12:30:59.312Z,14.94
2023-11-01T12:33:31.234Z,14.80
2023-11-01T12:36:03.230Z,14.99
2023-11-01T12:38:34.766Z,14.83
2023-11-01T12:41:06.821Z,14.78
2023-11-01T12:43:38.318Z,14.86
2023-11-01T12:46:10.199Z,14.67
2023-11-01T12:48:41.817Z,14.73
2023-11-01T12:51:13.739Z,14.65
2023-11-01T12:53:45.316Z,14.63
2023-11-01T12:56:17.008Z,14.76
2023-11-01T12:58:48.518Z,14.71
2023-11-01T13:01:20.331Z,14.45
2023-11-01T13:03:52.132Z,14.42
2023-11-01T13:06:23.724Z,14.26
2023-11-01T13:08:55.651Z,14.22
2023-11-01T13:11:27.184Z,13.98
2023-11-01T13:13:59.067Z,13.89
2023-11-01T13:16:30.596Z,13.90
2023-11-01T13:19:02.521Z,13.95
2023-11-01T13:21:34.033Z,14.00
2023-11-01T13:24:05.613Z,14.18
2023-11-01T13:26:37.158Z,14.11
2023-11-01T13:29:08.720Z,14.15
2023-11-01T13:31:40.252Z,14.13
2023-11-01T13:34:12.049Z,14.11
2023-11-01T13:36:43.559Z,14.04
2023-11-01T13:39:15.335Z,14.14
2023-11-01T13:41:47.052Z,14.11
2023-11-01T13:44:18.562Z,14.17
2023-11-01T13:46:50.397Z,14.29
2023-11-01T13:49:21.946Z,14.33
2023-11-01T13:51:53.840Z,14.14
2023-11-01T13:54:25.394Z,14.11
2023-11-01T13:56:57.264Z,14.00
2023-11-01T13:59:28.783Z,13.97
2023-11-01T14:02:00.683Z,14.12
2023-11-01T14:04:32.592Z,13.98
2023-11-01T14:07:04.126Z,14.00
2023-11-01T14:09:35.961Z,14.07
2023-11-01T14:12:07.510Z,14.02
2023-11-01T14:14:39.313Z,13.95
2023-11-01T14:17:10.809Z,13.97
2023-11-01T14:19:42.859Z,13.94
2023-11-01T14:22:14.395Z,13.83
2023-11-01T14:24:46.320Z,13.80
2023-11-01T14:27:17.840Z,13.67
2023-11-01T14:29:49.790Z,13.72
2023-11-01T14:32:21.523Z,13.64
2023-11-01T14:34:53.406Z,13.55
2023-11-01T14:37:25.215Z,13.60
2023-11-01T14:39:56.725Z,13.62
2023-11-01T14:42:28.540Z,13.58
2023-11-01T14:45:00.110Z,13.48
2023-11-01T14:47:31.830Z,13.50
2023-11-01T14:50:03.343Z,13.48
2023-11-01T14:52:35.160Z,13.48
2023-11-01T14:55:06.674Z,13.35
2023-11-01T14:57:38.501Z,13.33
2023-11-01T15:00:10.052Z,13.33
2023-11-01T15:02:41.674Z,13.32
2023-11-01T15:05:13.245Z,13.29
2023-11-01T15:07:44.781Z,13.32
2023-11-01T15:10:16.741Z,13.33
2023-11-01T15:12:48.247Z,13.29
2023-11-01T15:15:20.249Z,13.29
2023-11-01T15:17:51.844Z,13.29
2023-11-01T15:20:23.714Z,13.31
2023-11-01T15:22:55.219Z,13.33
2023-11-01T15:25:27.088Z,13.30
2023-11-01T15:27:58.594Z,13.20
2023-11-01T15:30:30.104Z,13.22
2023-11-01T15:33:02.012Z,13.16
2023-11-01T15:35:33.865Z,13.18
2023-11-01T15:38:05.846Z,13.18
2023-11-01T15:40:37.347Z,13.19
2023-11-01T15:43:09.372Z,13.19
2023-11-01T15:45:40.918Z,13.19
2023-11-01T15:48:12.880Z,13.15
2023-11-01T15:50:44.507Z,13.12
2023-11-01T15:53:16.405Z,13.12
2023-11-01T15:55:47.911Z,13.12
2023-11-01T15:58:19.716Z,13.11
2023-11-01T16:00:51.238Z,13.08
2023-11-01T16:03:23.239Z,13.00
2023-11-01T16:05:55.293Z,12.90
2023-11-01T16:08:26.846Z,12.93
2023-11-01T16:10:58.563Z,12.86
2023-11-01T16:13:30.084Z,12.83
2023-11-01T16:16:01.919Z,12.78
2023-11-01T16:18:33.552Z,12.75
2023-11-01T16:21:05.485Z,12.66
2023-11-01T16:23:37.054Z,12.64
2023-11-01T16:26:08.921Z,12.59
2023-11-01T16:28:40.418Z,12.54
2023-11-01T16:31:12.231Z,12.51
2023-11-01T16:33:44.198Z,12.51
2023-11-01T16:36:15.839Z,12.45
2023-11-01T16:38:49.352Z,12.39
2023-11-01T16:41:21.934Z,12.35
2023-11-01T16:43:53.740Z,12.32
2023-11-01T16:46:25.253Z,12.27
2023-11-01T16:48:57.106Z,12.21
2023-11-01T16:51:28.614Z,12.17
2023-11-01T16:54:00.473Z,12.13
2023-11-01T16:56:32.010Z,12.09
2023-11-01T16:59:03.897Z,12.03
2023-11-01T17:01:35.619Z,11.99
2023-11-01T17:04:07.265Z,11.93
2023-11-01T17:06:39.294Z,11.90
2023-11-01T17:09:10.862Z,11.88
2023-11-01T17:11:42.787Z,11.83
2023-11-01T17:14:14.320Z,11.82
2023-11-01T17:16:45.889Z,11.50
2023-11-01T17:19:17.393Z,11.80
2023-11-01T17:21:49.162Z,11.78
2023-11-01T17:24:20.758Z,11.74
2023-11-01T17:26:52.701Z,11.73
2023-11-01T17:29:24.429Z,11.72
2023-11-01T17:31:56.047Z,11.70
2023-11-01T17:34:28.063Z,11.66
2023-11-01T17:36:59.556Z,11.67
2023-11-01T17:39:31.479Z,11.67
2023-11-01T17:42:03.030Z,11.67
2023-11-01T17:44:34.977Z,11.66
2023-11-01T17:47:06.591Z,11.62
2023-11-01T17:49:38.122Z,11.66
2023-11-01T17:52:09.612Z,11.68
2023-11-01T17:54:41.287Z,11.70
2023-11-01T17:57:12.816Z,11.72
2023-11-01T17:59:44.419Z,11.70
2023-11-01T18:02:26.829Z,11.73
2023-11-01T18:04:59.067Z,11.76
2023-11-01T18:07:30.872Z,11.77
2023-11-01T18:10:02.396Z,11.81
2023-11-01T18:12:34.249Z,11.81
2023-11-01T18:15:05.810Z,11.83
2023-11-01T18:17:37.549Z,11.84
2023-11-01T18:20:09.593Z,11.83
2023-11-01T18:22:41.475Z,11.87
2023-11-01T18:25:13.254Z,11.85
2023-11-01T18:27:44.772Z,11.87
2023-11-01T18:30:16.713Z,11.87
2023-11-01T18:32:48.306Z,11.87
2023-11-01T18:35:20.205Z,11.87
2023-11-01T18:37:51.718Z,11.89
2023-11-01T18:40:23.503Z,11.89
2023-11-01T18:42:55.003Z,11.58
2023-11-01T18:45:26.837Z,11.87
2023-11-01T18:47:58.827Z,11.88
2023-11-01T18:50:30.771Z,11.87
2023-11-01T18:53:02.882Z,11.83
2023-11-01T18:55:34.477Z,11.86
2023-11-01T18:58:06.154Z,11.86
2023-11-01T19:00:37.683Z,11.87
2023-11-01T19:03:09.800Z,11.88
2023-11-01T19:05:41.453Z,11.84
2023-11-01T19:08:13.360Z,11.85
2023-11-01T19:10:44.845Z,11.85
2023-11-01T19:13:16.353Z,11.88
2023-11-01T19:15:47.858Z,11.84
2023-11-01T19:18:19.639Z,11.86
2023-11-01T19:20:51.203Z,11.80
2023-11-01T19:23:22.715Z,11.82
2023-11-01T19:25:54.587Z,11.81
2023-11-01T19:28:26.095Z,11.78
2023-11-01T19:30:58.021Z,11.73
2023-11-01T19:33:33.396Z,11.73
2023-11-01T19:36:11.734Z,11.65
2023-11-01T19:38:47.488Z,11.62
2023-11-01T19:41:19.264Z,11.60
2023-11-01T19:43:50.761Z,11.59
2023-11-01T19:46:22.319Z,11.61
2023-11-01T19:48:54.228Z,11.58
2023-11-01T19:51:25.723Z,11.58
2023-11-01T19:53:57.610Z,11.57
2023-11-01T19:56:29.188Z,11.59
2023-11-01T19:59:00.803Z,11.58
2023-11-01T20:01:32.427Z,11.57
2023-11-01T20:04:04.388Z,11.60
2023-11-01T20:06:35.921Z,11.59
2023-11-01T20:09:07.466Z,11.55
2023-11-01T20:11:39.001Z,11.58
2023-11-01T20:14:10.888Z,11.51
2023-11-01T20:16:42.460Z,11.51
2023-11-01T20:19:13.989Z,11.53
2023-11-01T20:21:45.819Z,11.52
2023-11-01T20:24:17.423Z,11.50
2023-11-01T20:26:49.411Z,11.47
2023-11-01T20:29:20.921Z,11.48
2023-11-01T20:31:52.457Z,11.45
2023-11-01T20:34:23.989Z,11.40
2023-11-01T20:36:55.624Z,11.40
2023-11-01T20:39:27.123Z,11.36
2023-11-01T20:41:59.026Z,11.34
2023-11-01T20:44:30.560Z,11.31
2023-11-01T20:47:02.090Z,11.25
2023-11-01T20:49:33.628Z,11.20
2023-11-01T20:52:05.331Z,11.19
2023-11-01T20:57:17.487Z,11.12
2023-11-01T20:59:49.545Z,11.05
2023-11-01T21:02:21.115Z,11.01
2023-11-01T21:04:52.933Z,10.96
2023-11-01T21:07:24.485Z,10.93
2023-11-01T21:09:56.031Z,10.90
2023-11-01T21:12:27.593Z,10.90
2023-11-01T21:14:59.124Z,10.87
2023-11-01T21:17:30.701Z,10.86
2023-11-01T21:20:02.589Z,10.89
2023-11-01T21:22:34.152Z,10.87
2023-11-01T21:25:05.964Z,10.86
2023-11-01T21:27:37.486Z,10.85
2023-11-01T21:30:09.580Z,10.86
2023-11-01T21:32:41.448Z,10.88
2023-11-01T21:35:14.872Z,10.85
2023-11-01T21:37:48.146Z,10.82
2023-11-01T21:40:19.717Z,10.82
2023-11-01T21:42:51.213Z,10.80
2023-11-01T21:45:22.747Z,10.77
2023-11-01T21:47:54.701Z,10.78
2023-11-01T21:50:26.254Z,10.74
2023-11-01T21:52:59.356Z,10.72
2023-11-01T21:55:30.876Z,10.68
2023-11-01T21:58:10.364Z,10.68
2023-11-01T22:00:48.062Z,10.65
2023-11-01T22:03:19.613Z,10.61
2023-11-01T22:05:51.363Z,10.61
2023-11-01T22:08:22.902Z,10.62
2023-11-01T22:10:54.424Z,10.63
2023-11-01T22:13:25.926Z,10.65
2023-11-01T22:15:57.718Z,10.69
2023-11-01T22:18:29.274Z,10.71
2023-11-01T22:21:01.201Z,10.73
2023-11-01T22:23:32.702Z,10.77
2023-11-01T22:26:04.540Z,10.80
2023-11-01T22:28:36.073Z,10.79
2023-11-01T22:31:07.836Z,10.78
2023-11-01T22:33:39.597Z,10.82
2023-11-01T22:36:11.169Z,10.84
2023-11-01T22:38:43.042Z,10.83
2023-11-01T22:41:14.572Z,10.83
2023-11-01T22:43:46.150Z,10.81
2023-11-01T22:46:17.710Z,10.76
2023-11-01T22:48:49.644Z,10.76
2023-11-01T22:51:21.256Z,10.76
2023-11-01T22:53:53.137Z,10.73
2023-11-01T22:56:24.659Z,10.68
2023-11-01T22:58:56.547Z,10.66
2023-11-01T23:01:28.062Z,10.62
2023-11-01T23:03:59.899Z,10.61
2023-11-01T23:06:31.447Z,10.60
2023-11-01T23:09:03.469Z,10.56
2023-11-01T23:11:35.271Z,10.53
2023-11-01T23:14:07.060Z,10.53
2023-11-01T23:16:38.847Z,10.50
2023-11-01T23:19:10.386Z,10.45
2023-11-01T23:21:42.217Z,10.48
2023-11-01T23:24:13.780Z,10.50
2023-11-01T23:26:45.304Z,10.54
2023-11-01T23:29:19.183Z,10.57
2023-11-01T23:31:51.218Z,10.57
2023-11-01T23:34:22.767Z,10.63
2023-11-01T23:36:54.644Z,10.67
2023-11-01T23:39:28.823Z,10.68
2023-11-01T23:42:00.863Z,10.66
2023-11-01T23:44:32.767Z,10.66
2023-11-01T23:47:04.594Z,10.68
2023-11-01T23:49:36.099Z,10.67
2023-11-01T23:52:07.602Z,10.68
2023-11-01T23:54:39.402Z,10.65
2023-11-01T23:57:10.909Z,10.68
2023-11-01T23:59:42.773Z,10.69
